Time;durP1;ratioP1;P1;durP2;ratioP2;P2;SDS_P1;SDS_P2;PMS_P1;PMS_P2;Temp;Humidity;BMP_temperature;BMP_pressure;BME280_temperature;BME280_humidity;BME280_pressure;Samples;Min_cycle;Max_cycle;Signal;HPM_P1;HPM_P2
2022/10/21 00:01:21;;;;;;;110.40;54.13;;;;;;;;;;5151778;27;20431;-71
2022/10/21 00:03:47;;;;;;;96.75;49.63;;;;;;;;;;5148864;27;20054;-72
2022/10/21 00:06:13;;;;;;;123.88;54.38;;;;;;;;;;5149773;27;20126;-71
2022/10/21 00:08:39;;;;;;;122.13;55.75;;;;;;;;;;5151191;27;20382;-71
2022/10/21 00:11:06;;;;;;;100.68;50.92;;;;;;;;;;5154170;27;20055;-71
2022/10/21 00:13:33;;;;;;;99.60;50.28;;;;;;;;;;5152468;27;20117;-71
2022/10/21 00:16:04;;;;;;;115.82;53.58;;;;;;;;;;5153713;27;20034;-71
2022/10/21 00:18:31;;;;;;;137.13;57.13;;;;;;;;;;5158094;27;20435;-74
2022/10/21 00:20:57;;;;;;;110.40;54.95;;;;;;;;;;5154188;27;20106;-71
2022/10/21 00:23:23;;;;;;;115.40;52.72;;;;;;;;;;5162325;27;20481;-73
2022/10/21 00:25:49;;;;;;;116.00;53.22;;;;;;;;;;5153271;27;20076;-70
2022/10/21 00:28:15;;;;;;;103.78;51.08;;;;;;;;;;5153738;27;20050;-71
2022/10/21 00:30:43;;;;;;;128.23;56.50;;;;;;;;;;5163478;27;20497;-71
2022/10/21 00:33:09;;;;;;;109.40;52.05;;;;;;;;;;5157482;27;20113;-71
2022/10/21 00:35:35;;;;;;;99.30;49.85;;;;;;;;;;5171139;27;20433;-72
2022/10/21 00:38:01;;;;;;;109.07;51.67;;;;;;;;;;5167469;27;20047;-72
2022/10/21 00:40:27;;;;;;;95.63;51.10;;;;;;;;;;5152787;27;20102;-71
2022/10/21 00:42:53;;;;;;;113.55;52.15;;;;;;;;;;5153137;27;20062;-71
2022/10/21 00:45:21;;;;;;;150.82;57.92;;;;;;;;;;5162634;27;20230;-71
2022/10/21 00:47:53;;;;;;;160.18;61.70;;;;;;;;;;5171613;27;20467;-72
2022/10/21 00:50:39;;;;;;;92.13;47.50;;;;;;;;;;5152534;27;20130;-71
2022/10/21 00:53:07;;;;;;;158.45;57.55;;;;;;;;;;5154069;27;20489;-71
2022/10/21 00:55:35;;;;;;;121.40;54.92;;;;;;;;;;5152972;27;20042;-73
2022/10/21 00:58:01;;;;;;;89.07;47.03;;;;;;;;;;5152434;27;20050;-70
2022/10/21 01:00:27;;;;;;;;;;;;;;;;;;5153683;27;20089;-71
2022/10/21 01:02:53;;;;;;;110.55;51.80;;;;;;;;;;5151702;27;19954;-71
2022/10/21 01:05:20;;;;;;;97.00;49.65;;;;;;;;;;5152136;27;20427;-70
2022/10/21 01:07:47;;;;;;;102.00;49.60;;;;;;;;;;5158905;27;20451;-71
2022/10/21 01:10:13;;;;;;;;;;;;;;;;;;5162928;27;20108;-71
2022/10/21 01:12:48;;;;;;;122.50;52.92;;;;;;;;;;5162014;27;19994;-71
2022/10/21 01:15:27;;;;;;;114.90;51.97;;;;;;;;;;5172936;27;20118;-70
2022/10/21 01:17:57;;;;;;;109.28;51.00;;;;;;;;;;5166932;27;20141;-71
2022/10/21 01:20:23;;;;;;;95.65;48.72;;;;;;;;;;5161798;27;20454;-71
2022/10/21 01:23:01;;;;;;;83.30;45.58;;;;;;;;;;5157646;27;20064;-70
2022/10/21 01:25:37;;;;;;;87.07;46.03;;;;;;;;;;5156743;27;20058;-71
2022/10/21 01:28:03;;;;;;;136.63;56.67;;;;;;;;;;5151523;27;20390;-70
2022/10/21 01:30:43;;;;;;;100.78;49.85;;;;;;;;;;5149237;27;20346;-70
2022/10/21 01:33:15;;;;;;;151.80;59.65;;;;;;;;;;5140732;27;20426;-70
2022/10/21 01:35:49;;;;;;;90.53;48.78;;;;;;;;;;5172263;27;20050;-70
2022/10/21 01:38:21;;;;;;;86.63;47.38;;;;;;;;;;5166261;27;20051;-70
2022/10/21 01:41:02;;;;;;;82.53;46.85;;;;;;;;;;5155056;27;20121;-71
2022/10/21 01:43:47;;;;;;;159.88;63.13;;;;;;;;;;5158981;27;20110;-70
2022/10/21 01:46:16;;;;;;;131.07;55.45;;;;;;;;;;5170946;27;20113;-71
2022/10/21 01:48:48;;;;;;;89.00;48.22;;;;;;;;;;5156905;27;20358;-71
2022/10/21 01:51:15;;;;;;;83.22;46.28;;;;;;;;;;5147141;27;20418;-71
2022/10/21 01:53:44;;;;;;;119.25;53.55;;;;;;;;;;5164054;27;20119;-73
2022/10/21 01:56:11;;;;;;;125.97;54.00;;;;;;;;;;5161111;27;20429;-71
2022/10/21 01:58:38;;;;;;;147.15;57.53;;;;;;;;;;5153160;27;20062;-71
2022/10/21 02:01:06;;;;;;;99.35;50.10;;;;;;;;;;5169445;27;20093;-71
2022/10/21 02:03:34;;;;;;;98.97;50.40;;;;;;;;;;5150751;27;20070;-71
2022/10/21 02:06:00;;;;;;;91.97;45.97;;;;;;;;;;5152058;27;20050;-71
2022/10/21 02:08:26;;;;;;;127.25;54.70;;;;;;;;;;5151412;27;20407;-70
2022/10/21 02:10:54;;;;;;;91.93;47.10;;;;;;;;;;5152747;27;20141;-71
2022/10/21 02:13:24;;;;;;;85.93;46.78;;;;;;;;;;5168599;27;20114;-71
2022/10/21 02:15:51;;;;;;;102.10;50.08;;;;;;;;;;5151361;27;20343;-71
2022/10/21 02:18:19;;;;;;;132.23;56.55;;;;;;;;;;5150645;27;20074;-71
2022/10/21 02:20:45;;;;;;;93.97;48.47;;;;;;;;;;5149611;27;20054;-73
2022/10/21 02:23:13;;;;;;;103.55;49.22;;;;;;;;;;5159762;27;20034;-71
2022/10/21 02:25:40;;;;;;;85.65;46.30;;;;;;;;;;5154811;27;20133;-71
2022/10/21 02:28:07;;;;;;;88.28;47.63;;;;;;;;;;5150135;27;20069;-71
2022/10/21 02:30:43;;;;;;;109.00;50.95;;;;;;;;;;5153966;27;20049;-72
2022/10/21 02:33:14;;;;;;;113.45;52.25;;;;;;;;;;5156945;27;20042;-71
2022/10/21 02:35:40;;;;;;;118.90;54.70;;;;;;;;;;5160397;27;20034;-72
2022/10/21 02:38:21;;;;;;;96.20;49.65;;;;;;;;;;5165840;27;20249;-71
2022/10/21 02:40:47;;;;;;;113.13;52.97;;;;;;;;;;5150504;27;20126;-72
2022/10/21 02:43:19;;;;;;;89.28;46.15;;;;;;;;;;5143139;27;20148;-72
2022/10/21 02:45:48;;;;;;;95.38;49.08;;;;;;;;;;5156956;27;20045;-70
2022/10/21 02:48:14;;;;;;;88.07;47.42;;;;;;;;;;5150236;27;20486;-71
2022/10/21 02:50:40;;;;;;;89.80;46.70;;;;;;;;;;5165538;27;20094;-70
2022/10/21 02:53:07;;;;;;;103.85;52.10;;;;;;;;;;5150681;27;20065;-72
2022/10/21 02:55:33;;;;;;;95.63;48.75;;;;;;;;;;5166099;27;20082;-71
2022/10/21 02:57:59;;;;;;;90.43;47.88;;;;;;;;;;5150504;27;20118;-69
2022/10/21 03:00:25;;;;;;;130.68;55.75;;;;;;;;;;5155056;27;20041;-70
2022/10/21 03:02:51;;;;;;;180.00;62.78;;;;;;;;;;5157250;27;20099;-74
2022/10/21 03:05:17;;;;;;;122.57;53.30;;;;;;;;;;5149556;27;20058;-71
2022/10/21 03:07:43;;;;;;;118.03;53.03;;;;;;;;;;5149481;27;20039;-70
2022/10/21 03:10:09;;;;;;;147.90;58.05;;;;;;;;;;5155942;27;20092;-72
2022/10/21 03:12:35;;;;;;;117.10;53.13;;;;;;;;;;5153089;27;20041;-72
2022/10/21 03:15:01;;;;;;;197.80;65.15;;;;;;;;;;5159335;27;20467;-74
2022/10/21 03:17:27;;;;;;;154.68;59.38;;;;;;;;;;5136473;27;20110;-75
2022/10/21 03:19:53;;;;;;;156.27;58.15;;;;;;;;;;5129950;27;20058;-77
2022/10/21 03:22:19;;;;;;;170.07;61.20;;;;;;;;;;5148992;27;20482;-76
2022/10/21 03:24:45;;;;;;;277.08;72.85;;;;;;;;;;5153742;27;20385;-77
2022/10/21 03:27:11;;;;;;;163.15;62.25;;;;;;;;;;5158524;27;20578;-76
2022/10/21 03:29:37;;;;;;;177.18;64.50;;;;;;;;;;5155272;27;20490;-78
2022/10/21 03:32:03;;;;;;;169.73;61.88;;;;;;;;;;5149600;27;20047;-77
2022/10/21 03:34:29;;;;;;;165.88;60.88;;;;;;;;;;5149795;27;20046;-78
2022/10/21 03:36:55;;;;;;;188.85;64.15;;;;;;;;;;5148937;27;20106;-78
2022/10/21 03:39:22;;;;;;;277.45;74.03;;;;;;;;;;5161512;27;20068;-77
2022/10/21 03:41:48;;;;;;;282.42;76.50;;;;;;;;;;5151975;27;20183;-78
2022/10/21 03:44:14;;;;;;;241.52;72.22;;;;;;;;;;5134867;27;20055;-77
2022/10/21 03:46:40;;;;;;;333.33;81.30;;;;;;;;;;5168443;27;20090;-77
2022/10/21 03:49:06;;;;;;;370.88;79.53;;;;;;;;;;5156121;27;20125;-77
2022/10/21 03:51:32;;;;;;;188.45;65.55;;;;;;;;;;5153248;27;20057;-77
2022/10/21 03:53:58;;;;;;;260.85;74.15;;;;;;;;;;5152988;27;20531;-78
2022/10/21 03:56:24;;;;;;;364.33;85.47;;;;;;;;;;5155199;27;20364;-78
2022/10/21 03:58:50;;;;;;;323.73;78.65;;;;;;;;;;5154896;27;20102;-78
2022/10/21 04:01:16;;;;;;;152.73;58.72;;;;;;;;;;5155908;27;20304;-78
2022/10/21 04:03:42;;;;;;;207.85;68.50;;;;;;;;;;5156255;27;20095;-78
2022/10/21 04:06:08;;;;;;;200.52;64.65;;;;;;;;;;5155526;27;20119;-78
2022/10/21 04:08:34;;;;;;;222.95;71.32;;;;;;;;;;5168781;27;20123;-78
2022/10/21 04:11:00;;;;;;;167.23;61.83;;;;;;;;;;5158176;27;20102;-78
2022/10/21 04:13:27;;;;;;;184.63;64.57;;;;;;;;;;5155981;27;20459;-78
2022/10/21 04:15:59;;;;;;;192.05;66.15;;;;;;;;;;5164313;27;20126;-78
2022/10/21 04:18:25;;;;;;;191.77;67.20;;;;;;;;;;5164007;27;20395;-79
2022/10/21 04:20:51;;;;;;;299.52;80.45;;;;;;;;;;5157636;27;20050;-80
2022/10/21 04:23:18;;;;;;;264.60;75.60;;;;;;;;;;5170944;27;20051;-80
2022/10/21 04:25:44;;;;;;;148.43;59.08;;;;;;;;;;5173749;27;20126;-78
2022/10/21 04:28:10;;;;;;;274.27;73.75;;;;;;;;;;5156856;27;20046;-80
2022/10/21 04:30:36;;;;;;;280.63;77.38;;;;;;;;;;5172000;27;20057;-79
2022/10/21 04:33:03;;;;;;;285.77;77.22;;;;;;;;;;5156046;27;20042;-86
2022/10/21 04:35:29;;;;;;;297.20;76.57;;;;;;;;;;5163738;27;20079;-78
2022/10/21 04:37:55;;;;;;;191.10;63.15;;;;;;;;;;5161392;27;20046;-79
2022/10/21 04:40:21;;;;;;;176.57;61.58;;;;;;;;;;5154098;27;20147;-84
2022/10/21 04:42:48;;;;;;;225.85;69.03;;;;;;;;;;5159478;27;20049;-79
2022/10/21 04:45:14;;;;;;;214.57;68.95;;;;;;;;;;5152255;27;20050;-79
2022/10/21 04:47:40;;;;;;;277.45;77.85;;;;;;;;;;5158952;27;20073;-78
2022/10/21 04:50:07;;;;;;;145.93;57.92;;;;;;;;;;5153528;27;20061;-82
2022/10/21 04:52:33;;;;;;;270.75;77.68;;;;;;;;;;5155011;27;20073;-80
2022/10/21 04:54:59;;;;;;;230.02;71.22;;;;;;;;;;5152038;27;20110;-79
2022/10/21 04:57:25;;;;;;;239.38;71.63;;;;;;;;;;5133232;27;20150;-78
2022/10/21 04:59:51;;;;;;;182.32;65.18;;;;;;;;;;5153524;27;20115;-79
2022/10/21 05:02:17;;;;;;;250.93;70.13;;;;;;;;;;5141425;27;20083;-80
2022/10/21 05:04:43;;;;;;;224.25;67.15;;;;;;;;;;5152605;27;20042;-79
2022/10/21 05:07:09;;;;;;;245.90;71.93;;;;;;;;;;5115428;27;20039;-86
2022/10/21 05:09:35;;;;;;;201.75;67.20;;;;;;;;;;5160240;27;20109;-80
2022/10/21 05:12:01;;;;;;;315.02;80.97;;;;;;;;;;5167559;27;20046;-79
2022/10/21 05:14:27;;;;;;;287.50;74.88;;;;;;;;;;5134750;27;20054;-80
2022/10/21 05:16:53;;;;;;;359.20;83.45;;;;;;;;;;5116448;27;20087;-78
2022/10/21 05:19:19;;;;;;;323.08;81.18;;;;;;;;;;5137494;27;20125;-79
2022/10/21 05:21:46;;;;;;;305.85;77.43;;;;;;;;;;5153771;27;20126;-78
2022/10/21 05:24:12;;;;;;;321.52;81.72;;;;;;;;;;5160803;27;20061;-78
2022/10/21 05:26:39;;;;;;;298.95;79.35;;;;;;;;;;5164419;27;20140;-78
2022/10/21 05:29:05;;;;;;;393.08;89.30;;;;;;;;;;5160063;27;20102;-77
2022/10/21 05:31:31;;;;;;;249.60;72.30;;;;;;;;;;5156126;27;20339;-76
2022/10/21 05:33:57;;;;;;;270.38;77.95;;;;;;;;;;5132739;27;20485;-79
2022/10/21 05:36:23;;;;;;;301.08;80.30;;;;;;;;;;5151899;27;20046;-78
2022/10/21 05:38:49;;;;;;;307.48;79.68;;;;;;;;;;5164153;27;20125;-79
2022/10/21 05:41:18;;;;;;;299.95;79.72;;;;;;;;;;5115166;27;20046;-81
2022/10/21 05:43:44;;;;;;;459.23;94.97;;;;;;;;;;5160323;27;20041;-78
2022/10/21 05:46:10;;;;;;;386.38;87.70;;;;;;;;;;5152764;27;20142;-84
2022/10/21 05:48:36;;;;;;;466.08;97.70;;;;;;;;;;5151347;27;20050;-79
2022/10/21 05:51:02;;;;;;;;;;;;;;;;;;5155961;27;20113;-78
2022/10/21 05:53:28;;;;;;;321.35;84.38;;;;;;;;;;5161086;27;19978;-79
2022/10/21 05:55:59;;;;;;;361.42;91.30;;;;;;;;;;5137446;27;20042;-85
2022/10/21 05:58:25;;;;;;;326.92;85.47;;;;;;;;;;5171450;27;20054;-78
2022/10/21 06:00:53;;;;;;;464.70;99.13;;;;;;;;;;5157838;27;20107;-82
2022/10/21 06:03:22;;;;;;;342.63;86.80;;;;;;;;;;5168159;27;20122;-81
2022/10/21 06:05:49;;;;;;;409.10;93.57;;;;;;;;;;5155012;27;20053;-81
2022/10/21 06:08:15;;;;;;;349.38;87.25;;;;;;;;;;5160301;27;20408;-90
2022/10/21 06:10:41;;;;;;;374.10;87.80;;;;;;;;;;5157796;27;20066;-78
2022/10/21 06:13:07;;;;;;;394.63;91.15;;;;;;;;;;5152110;27;20046;-79
2022/10/21 06:15:33;;;;;;;302.33;82.03;;;;;;;;;;5150681;27;20058;-79
2022/10/21 06:17:59;;;;;;;318.85;82.93;;;;;;;;;;5140366;27;20042;-77
2022/10/21 06:20:25;;;;;;;333.85;84.88;;;;;;;;;;5119610;27;20125;-79
2022/10/21 06:22:51;;;;;;;250.38;75.07;;;;;;;;;;5159297;27;20125;-78
2022/10/21 06:25:17;;;;;;;188.75;68.60;;;;;;;;;;5164471;27;20070;-88
2022/10/21 06:27:43;;;;;;;266.95;78.43;;;;;;;;;;5119442;27;20056;-76
2022/10/21 06:30:10;;;;;;;265.35;79.10;;;;;;;;;;5148028;27;20393;-77
2022/10/21 06:32:35;;;;;;;;;;;;;;;;;;5147964;27;20438;-81
2022/10/21 06:35:02;;;;;;;305.63;81.30;;;;;;;;;;5129837;27;19926;-79
2022/10/21 06:37:28;;;;;;;289.60;80.88;;;;;;;;;;5161193;27;20054;-76
2022/10/21 06:39:54;;;;;;;313.63;80.97;;;;;;;;;;5150915;27;20115;-75
2022/10/21 06:42:20;;;;;;;;;;;;;;;;;;5151543;27;20047;-84
2022/10/21 06:44:46;;;;;;;328.23;87.57;;;;;;;;;;5134176;27;19950;-74
2022/10/21 06:47:12;;;;;;;326.65;83.97;;;;;;;;;;5144504;27;20122;-75
2022/10/21 06:49:38;;;;;;;296.40;81.00;;;;;;;;;;5165719;27;20046;-74
2022/10/21 06:52:04;;;;;;;251.88;77.43;;;;;;;;;;5135602;27;20047;-74
2022/10/21 06:54:31;;;;;;;289.33;81.15;;;;;;;;;;5172275;27;20465;-74
2022/10/21 06:56:57;;;;;;;323.42;81.70;;;;;;;;;;5160675;27;20125;-73
2022/10/21 06:59:23;;;;;;;227.68;70.78;;;;;;;;;;5152965;27;20474;-74
2022/10/21 07:01:49;;;;;;;241.70;74.25;;;;;;;;;;5151451;27;20043;-73
2022/10/21 07:04:15;;;;;;;168.68;62.80;;;;;;;;;;5157853;27;20073;-72
2022/10/21 07:06:41;;;;;;;256.92;73.60;;;;;;;;;;5161424;27;20034;-73
2022/10/21 07:09:08;;;;;;;136.48;57.13;;;;;;;;;;5159850;27;20495;-74
2022/10/21 07:11:34;;;;;;;210.52;70.30;;;;;;;;;;5136538;27;20432;-72
2022/10/21 07:14:01;;;;;;;248.00;74.18;;;;;;;;;;5155893;27;20439;-72
2022/10/21 07:16:31;;;;;;;151.93;62.75;;;;;;;;;;5150055;27;20473;-72
2022/10/21 07:18:57;;;;;;;199.57;66.50;;;;;;;;;;5156864;27;20053;-72
2022/10/21 07:21:25;;;;;;;211.63;70.95;;;;;;;;;;5165909;27;20078;-75
2022/10/21 07:23:51;;;;;;;213.30;68.53;;;;;;;;;;5157967;27;21980;-72
2022/10/21 07:26:18;;;;;;;141.32;57.30;;;;;;;;;;5160269;27;20174;-72
2022/10/21 07:28:46;;;;;;;196.48;63.95;;;;;;;;;;5115370;27;20106;-71
2022/10/21 07:31:16;;;;;;;302.42;79.90;;;;;;;;;;5153312;27;20360;-72
2022/10/21 07:33:42;;;;;;;200.10;66.93;;;;;;;;;;5123851;27;20042;-72
2022/10/21 07:36:12;;;;;;;217.32;69.53;;;;;;;;;;5151010;27;20035;-71
2022/10/21 07:38:40;;;;;;;268.80;74.70;;;;;;;;;;5155299;27;20087;-71
2022/10/21 07:41:06;;;;;;;267.42;73.28;;;;;;;;;;5151583;27;20121;-70
2022/10/21 07:43:33;;;;;;;282.63;76.70;;;;;;;;;;5153861;27;20068;-71
2022/10/21 07:45:59;;;;;;;324.63;81.35;;;;;;;;;;5135314;27;20122;-71
2022/10/21 07:48:25;;;;;;;;;;;;;;;;;;5163325;27;20089;-71
2022/10/21 07:50:51;;;;;;;216.23;68.82;;;;;;;;;;5154928;27;20017;-71
2022/10/21 07:53:19;;;;;;;207.23;67.18;;;;;;;;;;5138238;27;20047;-71
2022/10/21 07:55:45;;;;;;;314.55;78.00;;;;;;;;;;5163640;27;20476;-71
2022/10/21 07:58:11;;;;;;;246.63;75.22;;;;;;;;;;5159104;27;20457;-72
2022/10/21 08:00:37;;;;;;;254.10;75.13;;;;;;;;;;5164799;27;20053;-71
2022/10/21 08:03:03;;;;;;;167.60;62.13;;;;;;;;;;5162382;27;20050;-71
2022/10/21 08:05:29;;;;;;;203.50;66.45;;;;;;;;;;5145813;27;20448;-75
2022/10/21 08:07:57;;;;;;;166.27;63.33;;;;;;;;;;5166200;27;20087;-72
2022/10/21 08:10:23;;;;;;;192.15;63.17;;;;;;;;;;5144173;27;20053;-72
2022/10/21 08:12:49;;;;;;;134.43;56.17;;;;;;;;;;5169937;27;20229;-71
2022/10/21 08:15:15;;;;;;;178.95;64.07;;;;;;;;;;5167972;27;20042;-72
2022/10/21 08:17:41;;;;;;;191.05;65.43;;;;;;;;;;5149223;27;20117;-71
2022/10/21 08:20:08;;;;;;;208.73;67.32;;;;;;;;;;5150136;27;20444;-71
2022/10/21 08:22:34;;;;;;;218.80;70.75;;;;;;;;;;5149618;27;20058;-72
2022/10/21 08:25:00;;;;;;;288.48;77.10;;;;;;;;;;5149669;27;20091;-71
2022/10/21 08:27:26;;;;;;;251.40;73.32;;;;;;;;;;5149897;27;20062;-71
2022/10/21 08:29:52;;;;;;;140.48;57.03;;;;;;;;;;5152482;27;20332;-71
2022/10/21 08:32:18;;;;;;;424.95;105.28;;;;;;;;;;5165067;27;20110;-71
2022/10/21 08:34:44;;;;;;;181.30;64.63;;;;;;;;;;5173940;27;20053;-71
2022/10/21 08:37:10;;;;;;;203.07;67.47;;;;;;;;;;5149117;27;20107;-71
2022/10/21 08:39:36;;;;;;;160.75;59.15;;;;;;;;;;5152592;27;20486;-73
2022/10/21 08:42:14;;;;;;;188.15;59.85;;;;;;;;;;5118903;27;20449;-71
2022/10/21 08:44:53;;;;;;;233.65;68.68;;;;;;;;;;5153023;27;20111;-71
2022/10/21 08:47:22;;;;;;;160.20;62.22;;;;;;;;;;5153772;27;20130;-72
2022/10/21 08:49:55;;;;;;;176.85;62.78;;;;;;;;;;5153263;27;20066;-72
2022/10/21 08:52:30;;;;;;;199.68;66.90;;;;;;;;;;5153429;27;20043;-71
2022/10/21 08:54:59;;;;;;;190.80;66.95;;;;;;;;;;5153116;27;20154;-70
2022/10/21 08:57:25;;;;;;;154.32;61.00;;;;;;;;;;5155360;27;20165;-72
2022/10/21 08:59:51;;;;;;;177.82;63.58;;;;;;;;;;5160309;27;20126;-72
2022/10/21 09:02:29;;;;;;;115.75;51.13;;;;;;;;;;5168710;27;20074;-71
2022/10/21 09:05:10;;;;;;;120.20;53.33;;;;;;;;;;5163313;27;20042;-80
2022/10/21 09:07:55;;;;;;;135.20;55.35;;;;;;;;;;5159658;27;20046;-72
2022/10/21 09:10:47;;;;;;;126.97;55.83;;;;;;;;;;5157678;27;20034;-72
2022/10/21 09:13:20;;;;;;;138.43;57.67;;;;;;;;;;5164577;27;20122;-72
2022/10/21 09:15:52;;;;;;;128.90;55.08;;;;;;;;;;5139083;27;20083;-72
2022/10/21 09:18:36;;;;;;;134.65;54.85;;;;;;;;;;5174975;27;20320;-71
2022/10/21 09:21:32;;;;;;;128.68;52.78;;;;;;;;;;5134512;27;20121;-72
2022/10/21 09:24:06;;;;;;;99.00;48.05;;;;;;;;;;5127177;27;20073;-73
2022/10/21 09:26:38;;;;;;;102.57;48.72;;;;;;;;;;5166305;27;20123;-73
2022/10/21 09:29:25;;;;;;;115.22;50.88;;;;;;;;;;5168148;27;20424;-73
2022/10/21 09:31:51;;;;;;;116.83;52.53;;;;;;;;;;5160815;27;20039;-74
2022/10/21 09:34:36;;;;;;;132.02;52.17;;;;;;;;;;5166961;27;20074;-74
2022/10/21 09:37:04;;;;;;;97.72;46.08;;;;;;;;;;5160796;27;20111;-74
2022/10/21 09:39:37;;;;;;;102.20;48.85;;;;;;;;;;5169478;27;20089;-74
2022/10/21 09:42:03;;;;;;;86.10;45.15;;;;;;;;;;5144632;27;20073;-73
2022/10/21 09:44:29;;;;;;;90.38;44.58;;;;;;;;;;5157904;27;20114;-73
2022/10/21 09:46:55;;;;;;;78.57;42.38;;;;;;;;;;5169161;27;20087;-73
2022/10/21 09:49:27;;;;;;;135.32;50.75;;;;;;;;;;5170448;27;20091;-73
2022/10/21 09:51:53;;;;;;;109.55;49.38;;;;;;;;;;5167804;27;20054;-73
2022/10/21 09:54:21;;;;;;;98.00;47.90;;;;;;;;;;5168237;27;20068;-73
2022/10/21 09:56:58;;;;;;;63.38;36.58;;;;;;;;;;5143928;27;20417;-74
2022/10/21 09:59:24;;;;;;;64.75;36.75;;;;;;;;;;5151839;27;20056;-74
2022/10/21 10:01:51;;;;;;;73.63;38.13;;;;;;;;;;5132003;27;20053;-75
2022/10/21 10:04:30;;;;;;;76.65;40.40;;;;;;;;;;5160600;27;20118;-75
2022/10/21 10:06:57;;;;;;;85.07;40.40;;;;;;;;;;5163728;27;20438;-74
2022/10/21 10:09:35;;;;;;;69.05;37.35;;;;;;;;;;5130779;27;20328;-74
2022/10/21 10:12:01;;;;;;;95.60;37.13;;;;;;;;;;5151934;27;20060;-75
2022/10/21 10:14:27;;;;;;;55.38;30.27;;;;;;;;;;5164901;27;20042;-73
2022/10/21 10:16:54;;;;;;;64.97;34.97;;;;;;;;;;5170135;27;20513;-74
2022/10/21 10:19:22;;;;;;;51.67;30.52;;;;;;;;;;5168289;27;20054;-74
2022/10/21 10:22:06;;;;;;;57.58;32.15;;;;;;;;;;5166674;27;20205;-76
2022/10/21 10:24:32;;;;;;;64.40;35.60;;;;;;;;;;5148049;27;20117;-74
2022/10/21 10:27:03;;;;;;;62.55;33.60;;;;;;;;;;5155388;27;20038;-73
2022/10/21 10:29:29;;;;;;;48.70;28.00;;;;;;;;;;5162393;27;20127;-73
2022/10/21 10:32:00;;;;;;;50.85;29.30;;;;;;;;;;5151527;27;20486;-73
2022/10/21 10:34:26;;;;;;;58.83;30.35;;;;;;;;;;5150543;27;20070;-73
2022/10/21 10:36:59;;;;;;;58.10;31.90;;;;;;;;;;5150466;27;20117;-73
2022/10/21 10:39:29;;;;;;;47.80;28.50;;;;;;;;;;5150748;27;20042;-72
2022/10/21 10:41:55;;;;;;;61.33;32.28;;;;;;;;;;5155121;27;20046;-72
2022/10/21 10:44:33;;;;;;;55.08;30.23;;;;;;;;;;5150367;27;20187;-72
2022/10/21 10:47:00;;;;;;;56.50;31.52;;;;;;;;;;5131676;27;20099;-73
2022/10/21 10:49:27;;;;;;;51.75;29.80;;;;;;;;;;5157634;27;20050;-74
2022/10/21 10:52:04;;;;;;;51.53;30.40;;;;;;;;;;5155521;27;20069;-73
2022/10/21 10:54:30;;;;;;;;;;;;;;;;;;5159951;27;20087;-71
2022/10/21 10:56:58;;;;;;;46.08;28.55;;;;;;;;;;5157874;27;20308;-71
2022/10/21 10:59:28;;;;;;;76.63;34.45;;;;;;;;;;5152276;27;20038;-71
2022/10/21 11:02:10;;;;;;;90.55;34.45;;;;;;;;;;5151187;27;20074;-71
2022/10/21 11:04:39;;;;;;;45.25;24.55;;;;;;;;;;5151007;27;20054;-71
2022/10/21 11:07:20;;;;;;;44.95;26.50;;;;;;;;;;5149969;27;20050;-71
2022/10/21 11:09:48;;;;;;;99.00;31.85;;;;;;;;;;5151911;27;20054;-72
2022/10/21 11:12:19;;;;;;;101.03;32.90;;;;;;;;;;5154463;27;20148;-71
2022/10/21 11:14:49;;;;;;;86.00;30.50;;;;;;;;;;5167145;27;20054;-70
2022/10/21 11:17:18;;;;;;;38.83;23.48;;;;;;;;;;5152124;27;20462;-71
2022/10/21 11:20:00;;;;;;;78.95;28.67;;;;;;;;;;5164100;27;20095;-72
2022/10/21 11:22:45;;;;;;;118.20;31.13;;;;;;;;;;5165797;27;20498;-72
2022/10/21 11:25:18;;;;;;;74.13;24.63;;;;;;;;;;5130583;27;20062;-71
2022/10/21 11:27:47;;;;;;;57.78;19.75;;;;;;;;;;5159420;27;20046;-70
2022/10/21 11:30:13;;;;;;;59.97;23.75;;;;;;;;;;5166277;27;20439;-72
2022/10/21 11:32:58;;;;;;;30.63;18.35;;;;;;;;;;5152208;27;20125;-69
2022/10/21 11:35:42;;;;;;;32.72;17.67;;;;;;;;;;5149984;27;20118;-72
2022/10/21 11:38:25;;;;;;;27.38;14.80;;;;;;;;;;5156564;27;20038;-72
2022/10/21 11:40:59;;;;;;;29.88;17.40;;;;;;;;;;5162186;27;20509;-70
2022/10/21 11:43:31;;;;;;;27.58;14.35;;;;;;;;;;5163590;27;20069;-72
2022/10/21 11:46:00;;;;;;;27.63;15.27;;;;;;;;;;5164238;27;20077;-71
2022/10/21 11:48:35;;;;;;;31.23;17.42;;;;;;;;;;5161102;27;20129;-72
2022/10/21 11:51:09;;;;;;;28.40;16.50;;;;;;;;;;5155478;27;20038;-72
2022/10/21 11:53:41;;;;;;;32.97;19.98;;;;;;;;;;5159652;27;20400;-72
2022/10/21 11:56:25;;;;;;;35.47;20.75;;;;;;;;;;5149320;27;20051;-72
2022/10/21 11:59:12;;;;;;;31.90;19.02;;;;;;;;;;5164027;27;20058;-70
2022/10/21 12:01:57;;;;;;;35.40;19.98;;;;;;;;;;5159493;27;20453;-70
2022/10/21 12:04:36;;;;;;;30.92;18.58;;;;;;;;;;5168629;27;20072;-70
2022/10/21 12:07:08;;;;;;;34.10;19.15;;;;;;;;;;5136214;27;20038;-72
2022/10/21 12:09:44;;;;;;;28.65;15.45;;;;;;;;;;5155245;27;20410;-70
2022/10/21 12:12:18;;;;;;;34.15;16.23;;;;;;;;;;5153534;27;20084;-71
2022/10/21 12:14:49;;;;;;;35.78;18.88;;;;;;;;;;5153231;27;20350;-71
2022/10/21 12:17:18;;;;;;;33.60;17.85;;;;;;;;;;5165624;27;20129;-70
2022/10/21 12:19:46;;;;;;;33.78;20.50;;;;;;;;;;5172469;27;20071;-71
2022/10/21 12:22:13;;;;;;;31.80;17.25;;;;;;;;;;5162330;27;20069;-74
2022/10/21 12:25:06;;;;;;;28.20;14.95;;;;;;;;;;5165991;27;20038;-73
2022/10/21 12:27:39;;;;;;;29.73;15.90;;;;;;;;;;5169405;27;20074;-73
2022/10/21 12:30:15;;;;;;;28.42;16.05;;;;;;;;;;5137099;27;20137;-72
2022/10/21 12:32:44;;;;;;;30.37;16.90;;;;;;;;;;5159187;27;20057;-71
2022/10/21 12:35:20;;;;;;;32.13;18.52;;;;;;;;;;5152935;27;20054;-71
2022/10/21 12:37:50;;;;;;;29.38;17.63;;;;;;;;;;5155198;27;20066;-70
2022/10/21 12:40:16;;;;;;;32.95;17.17;;;;;;;;;;5152842;27;20069;-73
2022/10/21 12:42:42;;;;;;;;;;;;;;;;;;5153438;27;20126;-72
2022/10/21 12:45:24;;;;;;;33.38;18.15;;;;;;;;;;5145625;27;19967;-72
2022/10/21 12:47:52;;;;;;;26.40;15.32;;;;;;;;;;5154132;27;20069;-72
2022/10/21 12:50:29;;;;;;;27.85;15.98;;;;;;;;;;5164177;27;20046;-72
2022/10/21 12:53:07;;;;;;;32.10;17.75;;;;;;;;;;5161404;27;20046;-69
2022/10/21 12:55:38;;;;;;;32.45;16.77;;;;;;;;;;5173386;27;20503;-72
2022/10/21 12:58:07;;;;;;;29.15;14.50;;;;;;;;;;5171753;27;20059;-72
2022/10/21 13:00:33;;;;;;;23.65;14.70;;;;;;;;;;5174019;27;20422;-74
2022/10/21 13:03:02;;;;;;;37.38;16.23;;;;;;;;;;5169661;27;20042;-72
2022/10/21 13:05:37;;;;;;;27.88;15.88;;;;;;;;;;5164954;27;20248;-71
2022/10/21 13:08:22;;;;;;;32.00;17.05;;;;;;;;;;5152507;27;20507;-72
2022/10/21 13:11:18;;;;;;;27.75;16.20;;;;;;;;;;5156333;27;20062;-72
2022/10/21 13:13:47;;;;;;;29.25;15.88;;;;;;;;;;5134184;27;20051;-72
2022/10/21 13:16:36;;;;;;;28.63;15.07;;;;;;;;;;5155410;27;21453;-72
2022/10/21 13:19:23;;;;;;;29.33;16.00;;;;;;;;;;5150984;27;20076;-70
2022/10/21 13:21:51;;;;;;;25.55;15.38;;;;;;;;;;5152065;27;20058;-70
2022/10/21 13:24:30;;;;;;;26.50;16.25;;;;;;;;;;5161335;27;20466;-71
2022/10/21 13:26:57;;;;;;;27.25;14.20;;;;;;;;;;5156605;27;20058;-71
2022/10/21 13:29:28;;;;;;;30.13;14.27;;;;;;;;;;5165054;27;20091;-70
2022/10/21 13:32:13;;;;;;;28.48;16.52;;;;;;;;;;5153219;27;20066;-70
2022/10/21 13:34:53;;;;;;;27.65;15.57;;;;;;;;;;5152187;27;20046;-73
2022/10/21 13:37:28;;;;;;;30.73;16.00;;;;;;;;;;5137435;27;20066;-71
2022/10/21 13:39:55;;;;;;;28.95;15.40;;;;;;;;;;5168418;27;20255;-73
2022/10/21 13:42:21;;;;;;;26.75;14.80;;;;;;;;;;5159993;27;20501;-74
2022/10/21 13:44:52;;;;;;;26.95;15.15;;;;;;;;;;5166280;27;20042;-72
2022/10/21 13:47:29;;;;;;;26.98;16.70;;;;;;;;;;5140887;27;20069;-72
2022/10/21 13:50:11;;;;;;;32.28;14.90;;;;;;;;;;5158987;27;20038;-73
2022/10/21 13:52:37;;;;;;;27.52;14.30;;;;;;;;;;5158604;27;20070;-73
2022/10/21 13:55:04;;;;;;;25.30;13.80;;;;;;;;;;5159008;27;20513;-74
2022/10/21 13:57:34;;;;;;;26.08;14.85;;;;;;;;;;5139633;27;20137;-76
2022/10/21 14:00:09;;;;;;;26.88;15.60;;;;;;;;;;5172046;27;20065;-73
2022/10/21 14:02:35;;;;;;;24.27;15.23;;;;;;;;;;5154932;27;20042;-71
2022/10/21 14:05:01;;;;;;;34.58;17.17;;;;;;;;;;5151964;27;20046;-69
2022/10/21 14:07:27;;;;;;;;;;;;;;;;;;5151513;27;20057;-71
2022/10/21 14:09:55;;;;;;;26.23;14.43;;;;;;;;;;5151019;27;19919;-72
2022/10/21 14:12:24;;;;;;;28.73;15.43;;;;;;;;;;5150246;27;20078;-73
2022/10/21 14:14:51;;;;;;;26.80;14.23;;;;;;;;;;5161716;27;20066;-75
2022/10/21 14:17:22;;;;;;;27.45;15.30;;;;;;;;;;5169555;27;20048;-72
2022/10/21 14:19:52;;;;;;;28.27;15.27;;;;;;;;;;5171037;27;20090;-71
2022/10/21 14:22:20;;;;;;;28.25;16.17;;;;;;;;;;5148456;27;20474;-71
2022/10/21 14:24:48;;;;;;;28.90;15.20;;;;;;;;;;5172479;27;20440;-70
2022/10/21 14:27:16;;;;;;;27.55;14.88;;;;;;;;;;5169557;27;20122;-71